ADDS METAR Data INFO
IDs: Format: Raw Decoded Include TAF

Data at: 0215 UTC 18 Jan 2018

KBLH 180152Z AUTO 00000KT 10SM CLR 20/03 A3015 RMK AO2 SLP208 T02000028
KBLH 180052Z AUTO 24006KT 10SM CLR 22/02 A3014 RMK AO2 SLP203 T02220022
KBLH 172352Z AUTO 18004KT 10SM CLR 23/03 A3014 RMK AO2 SLP201 T02280033 10244 20167 55013
KBLH 172252Z AUTO 35004KT 10SM CLR 24/01 A3013 RMK AO2 SLP199 T02440011
KBLH 172152Z AUTO 00000KT 10SM CLR 23/01 A3014 RMK AO2 SLP202 T02330011
KBLH 172052Z AUTO 35004KT 10SM CLR 23/02 A3017 RMK AO2 SLP213 T02280022 58028
KBLH 171952Z AUTO VRB03KT 10SM CLR 21/03 A3020 RMK AO2 SLP223 T02060028
KBLH 171852Z AUTO 12005KT 10SM CLR 18/04 A3024 RMK AO2 SLP236 T01830039
KBLH 171752Z AUTO 12003KT 10SM CLR 17/03 A3026 RMK AO2 SLP243 T01670028 10167 20083 51020
KBLH 171652Z AUTO 24004KT 10SM CLR 14/03 A3025 RMK AO2 SLP240 T01390028
KBLH 171552Z AUTO 17004KT 10SM CLR 11/03 A3023 RMK AO2 SLP234 T01110033
KBLH 171452Z AUTO 28003KT 10SM CLR 09/02 A3020 RMK AO2 SLP224 T00940022 53017
KBLH 171352Z AUTO 28005KT 10SM CLR 09/02 A3018 RMK AO2 SLP218 T00940022
KBLH 171252Z AUTO 34005KT 10SM CLR 12/02 A3016 RMK AO2 SLP210 T01170022
KBLH 171152Z AUTO 29003KT 10SM CLR 09/02 A3015 RMK AO2 SLP205 T00890022 10150 20083 58002
KBLH 171052Z AUTO 00000KT 10SM CLR 11/02 A3016 RMK AO2 SLP208 T01060022
KBLH 170952Z AUTO 29005KT 10SM CLR 10/03 A3016 RMK AO2 SLP209 T01000028
KBLH 170852Z AUTO 00000KT 10SM CLR 14/03 A3015 RMK AO2 SLP206 T01440028 50001
KBLH 170752Z AUTO 00000KT 10SM CLR 12/03 A3015 RMK AO2 SLP208 T01170028 402280072
KBLH 170652Z AUTO 10003KT 10SM CLR 13/03 A3015 RMK AO2 SLP207 T01280028
KBLH 170552Z AUTO 31003KT 10SM CLR 14/03 A3015 RMK AO2 SLP206 T01440033 10217 20117 51012
KBLH 170452Z AUTO 01006KT 10SM CLR 13/03 A3015 RMK AO2 SLP206 T01330028
KBLH 170352Z AUTO 01005KT 10SM CLR 15/03 A3013 RMK AO2 SLP201 T01500033
KBLH 170252Z AUTO 01005KT 10SM CLR 15/03 A3011 RMK AO2 SLP195 T01500033 51006
KBLH 170152Z AUTO 01003KT 10SM CLR 17/06 A3011 RMK AO2 SLP194 T01670056
KBLH 170052Z AUTO 07005KT 10SM CLR 19/07 A3010 RMK AO2 SLP190 T01940067
KBLH 162352Z AUTO 10005KT 10SM CLR 21/06 A3010 RMK AO2 SLP188 T02110061 10228 20167 51002
KBLH 162252Z AUTO 10004KT 10SM CLR 22/06 A3009 RMK AO2 SLP187 T02170061
KBLH 162152Z AUTO 35003KT 10SM CLR 22/04 A3010 RMK AO2 SLP188 T02220044
KBLH 162052Z AUTO 08005KT 10SM CLR 21/05 A3009 RMK AO2 SLP186 T02060050 58023
KBLH 161952Z AUTO 36003KT 10SM CLR 21/03 A3013 RMK AO2 SLP197 T02110033
KBLH 161852Z AUTO 00000KT 10SM CLR 19/03 A3015 RMK AO2 SLP207 T01890033
KBLH 161752Z AUTO 00000KT 10SM CLR 17/03 A3016 RMK AO2 SLP209 T01670033 10167 20072 51014
KBLH 161652Z AUTO 30004KT 10SM CLR 15/04 A3016 RMK AO2 SLP209 T01500039
KBLH 161552Z AUTO 28005KT 10SM CLR 12/04 A3014 RMK AO2 SLP201 T01170039
KBLH 161452Z AUTO 30003KT 10SM CLR 07/02 A3012 RMK AO2 SLP197 T00720022 53011